createdAt,value
2023-02-14T00:01:10.690Z,13.23
2023-02-14T00:03:37.499Z,12.77
2023-02-14T00:06:13.055Z,12.00
2023-02-14T00:08:41.089Z,12.10
2023-02-14T00:11:09.848Z,11.87
2023-02-14T00:13:36.369Z,11.77
2023-02-14T00:16:03.494Z,12.63
2023-02-14T00:18:48.819Z,11.63
2023-02-14T00:21:15.311Z,10.87
2023-02-14T00:23:41.808Z,12.60
2023-02-14T00:26:14.896Z,11.20
2023-02-14T00:28:42.815Z,11.10
2023-02-14T00:31:09.619Z,11.10
2023-02-14T00:33:36.611Z,11.40
2023-02-14T00:36:07.376Z,11.33
2023-02-14T00:38:34.741Z,10.73
2023-02-14T00:41:02.096Z,13.20
2023-02-14T00:43:28.984Z,11.43
2023-02-14T00:45:57.017Z,12.97
2023-02-14T00:48:23.676Z,12.67
2023-02-14T00:50:50.163Z,13.80
2023-02-14T00:53:16.642Z,12.53
2023-02-14T00:55:46.312Z,13.23
2023-02-14T00:58:14.562Z,14.80
2023-02-14T01:00:41.130Z,14.00
2023-02-14T01:03:07.641Z,15.00
2023-02-14T01:05:34.502Z,14.70
2023-02-14T01:08:03.938Z,16.10
2023-02-14T01:10:30.538Z,15.90
2023-02-14T01:12:58.620Z,15.37
2023-02-14T01:15:25.115Z,15.20
2023-02-14T01:17:51.602Z,13.97
2023-02-14T01:20:19.526Z,14.53
2023-02-14T01:22:45.998Z,15.10
2023-02-14T01:25:13.207Z,15.60
2023-02-14T01:27:39.763Z,14.13
2023-02-14T01:30:07.072Z,14.37
2023-02-14T01:32:33.782Z,14.60
2023-02-14T01:35:00.315Z,14.33
2023-02-14T01:37:27.034Z,14.30
2023-02-14T01:39:53.555Z,13.63
2023-02-14T01:42:20.087Z,13.83
2023-02-14T01:44:46.478Z,14.33
2023-02-14T01:47:13.813Z,13.70
2023-02-14T01:49:46.072Z,14.10
2023-02-14T01:52:19.551Z,14.37
2023-02-14T01:55:08.401Z,14.10
2023-02-14T01:57:41.766Z,15.57
2023-02-14T02:00:27.824Z,14.67
2023-02-14T02:02:56.910Z,14.27
2023-02-14T02:05:24.047Z,14.37
2023-02-14T02:07:52.654Z,15.87
2023-02-14T02:10:19.437Z,14.07
2023-02-14T02:12:47.873Z,15.37
2023-02-14T02:15:14.517Z,14.97
2023-02-14T02:18:15.622Z,15.37
2023-02-14T02:21:12.903Z,14.80
2023-02-14T02:24:10.115Z,14.80
2023-02-14T02:27:08.485Z,15.37
2023-02-14T02:30:06.353Z,14.67
2023-02-14T02:32:59.418Z,14.67
2023-02-14T02:35:39.304Z,15.93
2023-02-14T02:38:45.060Z,14.77
2023-02-14T02:41:37.921Z,14.83
2023-02-14T02:44:07.549Z,14.87
2023-02-14T02:46:49.652Z,14.80
2023-02-14T02:50:12.502Z,14.30
2023-02-14T02:53:03.491Z,15.63
2023-02-14T02:55:58.043Z,15.13
2023-02-14T02:58:31.412Z,15.70
2023-02-14T03:01:02.057Z,15.93
2023-02-14T03:03:57.996Z,16.33
2023-02-14T03:06:24.514Z,16.63
2023-02-14T03:08:50.979Z,15.77
2023-02-14T03:11:18.125Z,16.17
2023-02-14T03:14:16.325Z,16.10
2023-02-14T03:17:08.191Z,16.07
2023-02-14T03:19:57.678Z,16.07
2023-02-14T03:22:45.482Z,16.23
2023-02-14T03:25:20.956Z,16.30
2023-02-14T03:27:58.211Z,16.17
2023-02-14T03:30:48.543Z,16.30
2023-02-14T03:33:30.413Z,18.30
2023-02-14T03:35:56.867Z,16.87
2023-02-14T03:38:49.638Z,16.80
2023-02-14T03:41:23.005Z,17.83
2023-02-14T03:43:53.363Z,17.53
2023-02-14T03:46:23.985Z,17.33
2023-02-14T03:48:53.644Z,17.10
2023-02-14T03:51:23.205Z,17.43
2023-02-14T03:53:54.621Z,17.37
2023-02-14T03:56:38.489Z,17.87
2023-02-14T03:59:14.916Z,17.37
2023-02-14T04:01:55.557Z,16.53
2023-02-14T04:04:26.951Z,16.50
2023-02-14T04:06:53.494Z,16.13
2023-02-14T04:09:19.958Z,16.67
2023-02-14T04:11:50.238Z,16.83
2023-02-14T04:14:17.722Z,16.83
2023-02-14T04:17:03.008Z,16.20
2023-02-14T04:19:29.496Z,15.20
2023-02-14T04:21:55.939Z,15.27
2023-02-14T04:24:22.401Z,15.30
2023-02-14T04:27:10.003Z,15.87
2023-02-14T04:29:45.793Z,15.47
2023-02-14T04:32:15.203Z,16.20
2023-02-14T04:34:42.280Z,17.33
2023-02-14T04:37:09.149Z,16.80
2023-02-14T04:39:35.969Z,18.00
2023-02-14T04:42:02.989Z,18.63
2023-02-14T04:44:29.547Z,17.50
2023-02-14T04:46:56.041Z,19.07
2023-02-14T04:49:22.782Z,19.27
2023-02-14T04:51:49.240Z,20.10
2023-02-14T04:54:15.877Z,20.73
2023-02-14T04:56:42.438Z,19.57
2023-02-14T04:59:09.284Z,19.30
2023-02-14T05:01:36.254Z,19.13
2023-02-14T05:04:03.232Z,19.93
2023-02-14T05:06:29.771Z,20.40
2023-02-14T05:08:57.280Z,20.93
2023-02-14T05:11:23.835Z,19.23
2023-02-14T05:13:50.645Z,19.40
2023-02-14T05:16:17.149Z,19.30
2023-02-14T05:18:43.730Z,18.00
2023-02-14T05:21:10.770Z,17.97
2023-02-14T05:23:37.470Z,17.60
2023-02-14T05:26:04.307Z,18.20
2023-02-14T05:28:30.833Z,18.77
2023-02-14T05:30:58.862Z,18.57
2023-02-14T05:33:25.659Z,17.73
2023-02-14T05:35:52.183Z,18.20
2023-02-14T05:38:19.155Z,17.90
2023-02-14T05:40:45.642Z,17.77
2023-02-14T05:43:12.348Z,17.10
2023-02-14T05:45:38.901Z,16.33
2023-02-14T05:48:06.261Z,18.53
2023-02-14T05:50:32.747Z,18.47
2023-02-14T05:52:59.179Z,19.40
2023-02-14T05:55:26.257Z,19.43
2023-02-14T05:57:52.722Z,19.37
2023-02-14T06:00:19.900Z,18.37
2023-02-14T06:02:46.642Z,18.27
2023-02-14T06:05:14.811Z,18.13
2023-02-14T06:07:43.153Z,17.80
2023-02-14T06:10:10.078Z,18.47
2023-02-14T06:12:36.584Z,18.33
2023-02-14T06:15:03.153Z,17.97
2023-02-14T06:17:29.583Z,18.20
2023-02-14T06:19:56.033Z,17.63
2023-02-14T06:22:22.487Z,18.60
2023-02-14T06:24:48.958Z,17.90
2023-02-14T06:27:15.453Z,18.37
2023-02-14T06:29:42.444Z,19.10
2023-02-14T06:32:09.181Z,18.27
2023-02-14T06:34:36.073Z,18.17
2023-02-14T06:37:02.521Z,18.17
2023-02-14T06:39:28.972Z,17.03
2023-02-14T06:41:55.433Z,18.17
2023-02-14T06:44:22.008Z,17.00
2023-02-14T06:46:48.734Z,18.77
2023-02-14T06:49:15.208Z,17.67
2023-02-14T06:51:41.717Z,18.53
2023-02-14T06:54:08.184Z,21.67
2023-02-14T06:56:34.777Z,21.07
2023-02-14T06:59:01.568Z,20.13
2023-02-14T07:01:28.305Z,21.03
2023-02-14T07:03:55.200Z,20.47
2023-02-14T07:06:21.659Z,19.53
2023-02-14T07:08:48.201Z,21.30
2023-02-14T07:11:14.721Z,20.47
2023-02-14T07:13:41.205Z,21.40
2023-02-14T07:16:07.742Z,20.53
2023-02-14T07:18:34.240Z,20.47
2023-02-14T07:21:01.095Z,21.27
2023-02-14T07:23:27.851Z,19.27
2023-02-14T07:25:55.880Z,20.60
2023-02-14T07:28:22.369Z,20.83
2023-02-14T07:30:48.976Z,20.20
2023-02-14T07:33:15.588Z,19.53
2023-02-14T07:35:42.033Z,17.93
2023-02-14T07:38:08.687Z,18.00
2023-02-14T07:40:35.206Z,17.70
2023-02-14T07:43:01.632Z,19.13
2023-02-14T07:45:28.104Z,19.60
2023-02-14T07:47:55.482Z,20.40
2023-02-14T07:50:23.447Z,20.37
2023-02-14T07:52:50.268Z,20.00
2023-02-14T07:55:16.859Z,19.70
2023-02-14T07:57:43.402Z,20.07
2023-02-14T08:00:10.259Z,19.17
2023-02-14T08:02:39.432Z,18.40
2023-02-14T08:05:06.311Z,18.60
2023-02-14T08:07:32.898Z,17.93
2023-02-14T08:09:59.351Z,18.77
2023-02-14T08:12:44.923Z,19.10
2023-02-14T08:15:29.888Z,21.63
2023-02-14T08:17:56.985Z,22.87
2023-02-14T08:20:23.439Z,21.57
2023-02-14T08:22:49.937Z,18.53
2023-02-14T08:25:16.465Z,17.70
2023-02-14T08:27:42.914Z,17.67
2023-02-14T08:30:09.718Z,17.50
2023-02-14T08:32:36.579Z,18.50
2023-02-14T08:35:03.202Z,18.63
2023-02-14T08:37:29.755Z,19.03
2023-02-14T08:39:56.221Z,19.90
2023-02-14T08:42:22.683Z,20.53
2023-02-14T08:44:49.126Z,19.73
2023-02-14T08:47:15.644Z,19.60
2023-02-14T08:49:42.149Z,20.13
2023-02-14T08:52:08.653Z,20.57
2023-02-14T08:54:35.101Z,19.53
2023-02-14T08:57:03.443Z,20.00
2023-02-14T08:59:29.969Z,19.50
2023-02-14T09:01:56.478Z,19.77
2023-02-14T09:04:23.058Z,19.90
2023-02-14T09:06:49.574Z,19.00
2023-02-14T09:09:17.491Z,18.80
2023-02-14T09:11:43.985Z,17.63
2023-02-14T09:14:10.583Z,17.97
2023-02-14T09:16:37.221Z,20.03
2023-02-14T09:19:03.907Z,19.00
2023-02-14T09:21:30.599Z,20.27
2023-02-14T09:23:57.524Z,20.10
2023-02-14T09:26:24.249Z,19.63
2023-02-14T09:28:50.755Z,20.20
2023-02-14T09:31:23.026Z,21.17
2023-02-14T09:33:50.398Z,20.47
2023-02-14T09:36:17.268Z,19.83
2023-02-14T09:38:43.761Z,18.90
2023-02-14T09:41:30.916Z,19.00
2023-02-14T09:44:16.401Z,18.37
2023-02-14T09:46:50.403Z,17.33
2023-02-14T09:49:22.443Z,15.63
2023-02-14T09:51:52.249Z,15.00
2023-02-14T09:54:27.382Z,14.97
2023-02-14T09:57:13.908Z,14.20
2023-02-14T09:59:51.774Z,14.80
2023-02-14T10:02:56.255Z,14.23
2023-02-14T10:05:35.798Z,12.87
2023-02-14T10:08:08.304Z,15.00
2023-02-14T10:10:43.307Z,14.13
2023-02-14T10:13:39.256Z,13.57
2023-02-14T10:16:05.883Z,14.50
2023-02-14T10:18:43.832Z,14.57
2023-02-14T10:21:27.415Z,13.83
2023-02-14T10:24:17.864Z,13.47
2023-02-14T10:26:48.198Z,13.67
2023-02-14T10:29:17.672Z,13.60
2023-02-14T10:31:57.982Z,13.70
2023-02-14T10:34:47.819Z,13.83
2023-02-14T10:37:26.558Z,14.67
2023-02-14T10:40:34.601Z,14.17
2023-02-14T10:43:06.473Z,14.83
2023-02-14T10:46:20.966Z,13.53
2023-02-14T10:49:22.769Z,14.73
2023-02-14T10:52:00.661Z,14.43
2023-02-14T10:54:57.999Z,14.80
2023-02-14T10:57:47.666Z,15.03
2023-02-14T11:00:17.352Z,14.07
2023-02-14T11:02:47.406Z,15.63
2023-02-14T11:05:30.979Z,15.17
2023-02-14T11:07:59.070Z,15.63
2023-02-14T11:10:29.981Z,16.50
2023-02-14T11:12:56.768Z,16.13
2023-02-14T11:15:31.396Z,16.60
2023-02-14T11:18:21.895Z,16.33
2023-02-14T11:21:04.538Z,16.70
2023-02-14T11:23:42.094Z,16.57
2023-02-14T11:26:15.410Z,15.97
2023-02-14T11:29:00.295Z,16.23
2023-02-14T11:31:38.588Z,15.50
2023-02-14T11:34:31.053Z,16.17
2023-02-14T11:36:57.788Z,16.23
2023-02-14T11:39:34.737Z,15.43
2023-02-14T11:42:04.578Z,15.93
2023-02-14T11:44:34.215Z,18.20
2023-02-14T11:47:29.035Z,15.97
2023-02-14T11:50:10.943Z,14.90
2023-02-14T11:52:50.848Z,14.60
2023-02-14T11:55:33.699Z,15.70
2023-02-14T11:58:03.344Z,15.07
2023-02-14T12:00:31.435Z,14.60
2023-02-14T12:03:01.536Z,15.57
2023-02-14T12:05:31.310Z,13.90
2023-02-14T12:08:00.524Z,15.30
2023-02-14T12:10:30.940Z,14.20
2023-02-14T12:13:19.760Z,15.27
2023-02-14T12:15:46.207Z,14.17
2023-02-14T12:18:42.536Z,13.93
2023-02-14T12:21:12.596Z,14.03
2023-02-14T12:23:47.132Z,14.87
2023-02-14T12:26:36.406Z,14.60
2023-02-14T12:29:27.845Z,14.00
2023-02-14T12:31:59.121Z,15.67
2023-02-14T12:34:25.767Z,15.07
2023-02-14T12:37:07.038Z,14.97
2023-02-14T12:40:09.201Z,14.50
2023-02-14T12:43:03.473Z,15.43
2023-02-14T12:45:50.570Z,14.63
2023-02-14T12:48:47.236Z,14.40
2023-02-14T12:51:31.890Z,14.23
2023-02-14T12:54:22.510Z,15.30
2023-02-14T12:57:17.708Z,16.67
2023-02-14T12:59:49.838Z,16.87
2023-02-14T13:02:35.187Z,15.90
2023-02-14T13:05:14.673Z,15.97
2023-02-14T13:07:47.282Z,16.00
2023-02-14T13:10:35.240Z,15.37
2023-02-14T13:13:14.628Z,16.17
2023-02-14T13:16:30.548Z,15.67
2023-02-14T13:19:16.323Z,15.87
2023-02-14T13:21:44.300Z,16.20
2023-02-14T13:24:27.450Z,15.83
2023-02-14T13:26:59.791Z,15.50
2023-02-14T13:29:31.826Z,15.97
2023-02-14T13:32:02.266Z,14.80
2023-02-14T13:34:34.731Z,14.97
2023-02-14T13:37:18.410Z,15.50
2023-02-14T13:39:54.136Z,15.53
2023-02-14T13:42:46.678Z,16.13
2023-02-14T13:45:40.281Z,16.43
2023-02-14T13:48:26.750Z,15.90
2023-02-14T13:50:55.098Z,17.20
2023-02-14T13:53:43.673Z,16.87
2023-02-14T13:56:13.298Z,16.87
2023-02-14T13:58:52.896Z,17.30
2023-02-14T14:01:47.997Z,17.63
2023-02-14T14:04:26.451Z,16.57
2023-02-14T14:07:04.948Z,17.80
2023-02-14T14:09:47.540Z,18.93
2023-02-14T14:12:26.481Z,18.80
2023-02-14T14:15:05.427Z,19.10
2023-02-14T14:17:42.786Z,19.17
2023-02-14T14:20:43.980Z,19.83
2023-02-14T14:23:32.419Z,20.83
2023-02-14T14:26:00.210Z,20.20
2023-02-14T14:28:30.716Z,21.03
2023-02-14T14:30:57.527Z,20.97
2023-02-14T14:33:33.755Z,20.73
2023-02-14T14:36:11.145Z,21.23
2023-02-14T14:38:49.743Z,20.80
2023-02-14T14:41:17.533Z,21.90
2023-02-14T14:43:44.131Z,23.70
2023-02-14T14:46:13.005Z,22.77
2023-02-14T14:48:47.030Z,21.90
2023-02-14T14:51:29.694Z,21.97
2023-02-14T14:53:59.878Z,22.87
2023-02-14T14:56:31.659Z,23.30
2023-02-14T14:59:15.484Z,21.20
2023-02-14T15:01:46.820Z,22.83
2023-02-14T15:04:24.860Z,23.13
2023-02-14T15:06:51.759Z,22.33
2023-02-14T15:09:31.598Z,23.93
2023-02-14T15:12:21.349Z,22.53
2023-02-14T15:14:54.593Z,24.17
2023-02-14T15:17:27.081Z,22.90
2023-02-14T15:20:00.996Z,22.83
2023-02-14T15:22:38.117Z,23.50
2023-02-14T15:25:14.223Z,24.90
2023-02-14T15:27:41.563Z,26.03
2023-02-14T15:30:26.555Z,25.83
2023-02-14T15:32:54.179Z,25.13
2023-02-14T15:35:30.637Z,26.50
2023-02-14T15:38:01.729Z,26.13
2023-02-14T15:40:33.535Z,26.00
2023-02-14T15:43:31.929Z,27.47
2023-02-14T15:46:33.901Z,26.37
2023-02-14T15:49:05.279Z,26.43
2023-02-14T15:51:36.299Z,27.00
2023-02-14T15:54:06.124Z,27.33
2023-02-14T15:56:42.237Z,29.13
2023-02-14T15:59:26.218Z,29.73
2023-02-14T16:02:00.296Z,29.63
2023-02-14T16:04:30.759Z,30.43
2023-02-14T16:07:03.377Z,30.77
2023-02-14T16:09:31.856Z,30.67
2023-02-14T16:11:58.377Z,30.97
2023-02-14T16:14:36.925Z,30.97
2023-02-14T16:17:31.627Z,32.43
2023-02-14T16:19:58.504Z,31.60
2023-02-14T16:22:32.113Z,30.77
2023-02-14T16:24:59.287Z,30.43
2023-02-14T16:27:25.850Z,31.83
2023-02-14T16:29:52.555Z,32.07
2023-02-14T16:32:22.276Z,31.03
2023-02-14T16:34:49.557Z,31.30
2023-02-14T16:37:30.145Z,32.27
2023-02-14T16:39:57.740Z,32.87
2023-02-14T16:42:24.830Z,32.83
2023-02-14T16:44:51.577Z,32.73
2023-02-14T16:47:19.788Z,32.07
2023-02-14T16:49:46.724Z,31.60
2023-02-14T16:52:17.091Z,33.10
2023-02-14T16:54:43.830Z,32.43
2023-02-14T16:57:19.802Z,31.90
2023-02-14T16:59:46.799Z,35.10
2023-02-14T17:02:13.922Z,38.97
2023-02-14T17:04:40.367Z,34.63
2023-02-14T17:07:07.586Z,40.60
2023-02-14T17:09:39.061Z,32.10
2023-02-14T17:12:13.237Z,37.67
2023-02-14T17:14:41.898Z,39.47
2023-02-14T17:17:09.770Z,31.17
2023-02-14T17:19:36.688Z,31.17
2023-02-14T17:22:06.549Z,35.67
2023-02-14T17:24:33.256Z,34.17
2023-02-14T17:26:59.790Z,29.87
2023-02-14T17:29:26.227Z,32.03
2023-02-14T17:31:52.741Z,35.27
2023-02-14T17:34:19.531Z,33.90
2023-02-14T17:36:46.428Z,33.20
2023-02-14T17:39:12.938Z,32.43
2023-02-14T17:41:39.458Z,33.33
2023-02-14T17:44:07.139Z,36.50
2023-02-14T17:46:33.627Z,30.53
2023-02-14T17:49:02.558Z,34.00
2023-02-14T17:51:29.445Z,32.33
2023-02-14T17:53:57.455Z,32.13
2023-02-14T17:56:25.982Z,32.30
2023-02-14T17:58:55.123Z,30.97
2023-02-14T18:01:24.499Z,30.27
2023-02-14T18:03:54.428Z,30.60
2023-02-14T18:06:21.666Z,32.70
2023-02-14T18:08:50.486Z,33.93
2023-02-14T18:11:18.818Z,32.13
2023-02-14T18:13:45.535Z,31.90
2023-02-14T18:16:15.541Z,33.43
2023-02-14T18:18:42.060Z,34.47
2023-02-14T18:21:10.709Z,32.70
2023-02-14T18:23:37.777Z,30.50
2023-02-14T18:26:10.970Z,31.13
2023-02-14T18:28:37.984Z,29.80
2023-02-14T18:31:13.342Z,30.27
2023-02-14T18:33:40.295Z,29.87
2023-02-14T18:36:11.741Z,30.93
2023-02-14T18:38:39.617Z,33.70
2023-02-14T18:41:07.726Z,32.83
2023-02-14T18:43:35.319Z,30.93
2023-02-14T18:46:03.854Z,30.13
2023-02-14T18:48:31.720Z,29.43
2023-02-14T18:51:23.466Z,29.80
2023-02-14T18:53:54.453Z,30.13
2023-02-14T18:56:23.931Z,30.63
2023-02-14T18:58:54.417Z,29.50
2023-02-14T19:01:23.704Z,30.77
2023-02-14T19:03:52.752Z,30.73
2023-02-14T19:06:19.710Z,32.33
2023-02-14T19:08:46.549Z,30.60
2023-02-14T19:11:15.545Z,29.57
2023-02-14T19:13:51.004Z,30.20
2023-02-14T19:16:26.093Z,29.37
2023-02-14T19:18:53.745Z,28.87
2023-02-14T19:21:31.838Z,29.37
2023-02-14T19:23:58.704Z,29.90
2023-02-14T19:26:32.691Z,30.17
2023-02-14T19:29:01.800Z,31.23
2023-02-14T19:31:28.788Z,30.17
2023-02-14T19:33:55.351Z,31.20
2023-02-14T19:36:23.096Z,31.43
2023-02-14T19:38:51.744Z,31.43
2023-02-14T19:41:25.930Z,30.93
2023-02-14T19:43:52.688Z,30.03
2023-02-14T19:46:20.785Z,32.00
2023-02-14T19:48:48.639Z,30.73
2023-02-14T19:51:27.714Z,31.57
2023-02-14T19:53:55.703Z,29.87
2023-02-14T19:56:25.760Z,29.47
2023-02-14T19:58:53.203Z,29.03
2023-02-14T20:01:31.530Z,27.73
2023-02-14T20:03:57.958Z,27.33
2023-02-14T20:06:26.059Z,27.80
2023-02-14T20:08:52.647Z,26.60
2023-02-14T20:11:24.912Z,26.43
2023-02-14T20:13:52.764Z,24.70
2023-02-14T20:16:19.197Z,25.57
2023-02-14T20:18:45.628Z,26.47
2023-02-14T20:21:18.149Z,27.40
2023-02-14T20:23:45.734Z,27.83
2023-02-14T20:26:15.032Z,27.43
2023-02-14T20:28:43.126Z,26.20
2023-02-14T20:31:12.058Z,27.50
2023-02-14T20:33:38.949Z,27.50
2023-02-14T20:36:06.614Z,27.30
2023-02-14T20:38:34.194Z,26.50
2023-02-14T20:41:09.392Z,27.83
2023-02-14T20:43:36.490Z,27.33
2023-02-14T20:46:05.620Z,26.50
2023-02-14T20:48:33.320Z,27.73
2023-02-14T20:51:12.877Z,29.03
2023-02-14T20:53:40.212Z,28.67
2023-02-14T20:56:07.413Z,26.73
2023-02-14T20:58:35.411Z,26.50
2023-02-14T21:01:07.140Z,27.57
2023-02-14T21:03:35.800Z,27.07
2023-02-14T21:06:03.941Z,25.57
2023-02-14T21:08:30.677Z,24.43
2023-02-14T21:10:57.230Z,24.30
2023-02-14T21:13:23.689Z,25.13
2023-02-14T21:15:50.146Z,26.13
2023-02-14T21:18:17.082Z,26.73
2023-02-14T21:20:43.557Z,26.40
2023-02-14T21:23:09.991Z,27.30
2023-02-14T21:25:36.426Z,28.90
2023-02-14T21:28:02.842Z,33.37
2023-02-14T21:30:31.003Z,27.33
2023-02-14T21:32:57.601Z,31.00
2023-02-14T21:35:24.750Z,26.93
2023-02-14T21:37:51.176Z,25.93
2023-02-14T21:40:17.788Z,25.43
2023-02-14T21:42:44.555Z,29.67
2023-02-14T21:45:31.531Z,26.40
2023-02-14T21:48:16.947Z,27.57
2023-02-14T21:50:43.374Z,30.10
2023-02-14T21:53:09.880Z,27.50
2023-02-14T21:55:38.369Z,26.67
2023-02-14T21:58:04.810Z,28.47
2023-02-14T22:00:31.287Z,28.57
2023-02-14T22:02:57.798Z,27.20
2023-02-14T22:05:25.242Z,24.67
2023-02-14T22:07:51.651Z,25.63
2023-02-14T22:10:18.160Z,23.57
2023-02-14T22:12:44.574Z,24.03
2023-02-14T22:15:11.214Z,22.77
2023-02-14T22:17:38.348Z,27.80
2023-02-14T22:20:06.185Z,24.27
2023-02-14T22:22:34.502Z,25.23
2023-02-14T22:25:00.948Z,25.63
2023-02-14T22:27:27.412Z,36.10
2023-02-14T22:29:53.835Z,32.27
2023-02-14T22:32:20.348Z,33.67
2023-02-14T22:34:46.948Z,28.20
2023-02-14T22:37:13.352Z,28.67
2023-02-14T22:39:39.785Z,30.77
2023-02-14T22:42:06.856Z,32.33
2023-02-14T22:44:33.284Z,24.90
2023-02-14T22:47:01.149Z,25.60
2023-02-14T22:49:27.562Z,30.17
2023-02-14T22:51:53.989Z,22.33
2023-02-14T22:54:20.428Z,26.90
2023-02-14T22:56:48.531Z,25.10
2023-02-14T22:59:19.496Z,24.00
2023-02-14T23:01:47.204Z,24.40
2023-02-14T23:04:16.448Z,25.50
2023-02-14T23:06:43.057Z,27.43
2023-02-14T23:09:11.524Z,30.40
2023-02-14T23:11:39.762Z,23.73
2023-02-14T23:14:25.920Z,23.43
2023-02-14T23:17:10.644Z,24.40
2023-02-14T23:19:56.582Z,23.70
2023-02-14T23:22:26.860Z,26.37
2023-02-14T23:24:56.398Z,24.97
2023-02-14T23:27:27.299Z,27.00
2023-02-14T23:29:53.795Z,26.07
2023-02-14T23:32:20.312Z,23.93
2023-02-14T23:34:46.761Z,24.70
2023-02-14T23:37:14.149Z,24.90
2023-02-14T23:39:41.357Z,24.33
2023-02-14T23:42:10.819Z,23.30
2023-02-14T23:44:37.749Z,23.63
2023-02-14T23:47:07.170Z,24.67
2023-02-14T23:49:35.886Z,23.67
2023-02-14T23:52:03.997Z,22.53
2023-02-14T23:54:30.490Z,25.60
2023-02-14T23:56:57.586Z,23.07
2023-02-14T23:59:24.593Z,23.70
